Aérodrome :
LOGIN :

S'inscrire | Disclaimer

   EN    FR    IT 

 










Légende :    VFR   VFR Marginal   IFR   IFR Intensif   IFR Très Intensif
Visi : 
Plafond : 
>= 8 km
>= 3000ft
5 à 8 km
1000 à 3000 ft
1500m à 5 km
500 à 1000 ft
800 à 1500m
200 à 500 ft
< 800m
< 200 ft
Symboles :   Orages  Brouillard  Fortes neiges  Fortes précipitations  Vent > 20 kt
SIGMETs :   Divers  Orages  Givrage  Turbulence  Onde Orograph.  Cendres Volcan.






- Altitude de l'aérodrome : 2625 ft
- Code IATA : LEU


LESU - Aeròdrom dels Pirineus-Alt Urgell

DERNIER METAR :
  • 241500Z 22009KT 180V250 9999 SCT060 10/M01 Q1007

METARs EXPIRÉS :
  • 241430Z 21010KT 9999 SCT060 11/M02 Q1007
  • 241400Z 22009KT 130V260 9999 SCT060 11/M02 Q1007
  • 241330Z 20009KT 160V230 9999 SCT060 11/M02 Q1007
  • 241300Z VRB06KT 9999 SCT060 10/M03 Q1007
  • 241230Z 30007KT 260V340 9999 SCT060 09/M04 Q1007

TAF TAF LESU
Valide du 24 à 15h jusqu'au 25 à 15h UTC


241400Z 2415/2515 VRB04KT 9999 SCT050 TX12/2514Z TNM01/2506Z
PROB30
TEMPO 2415/2419 4000 RA BKN012 BKN030
TEMPO 2415/2418 24008KT



MET'MAP, la Météo Aéronautique d'un coup d'oeil ! - Copyright ORBIFLY Décembre 2007 - Disclaimer

ORBIFLY MET'MAP TEAM :

Programmation & Développement : Alexandra Zaïnal
Sur une idée originale de : Baudouin d'Aumeries
Assistance à la programmation : Marc-Olivier Méhu
Soutien technique & logistique : Manuel Goepfert

Contact : metmap@orbifly.com




SOURCES & CREDITS :

   NOAA